DLH221 EDDK-LSZH
Flight info
| Callsign | DLH221 |
|---|---|
| Flight time | 0h 54m |
| Altitude | 31000 |
| Route | KUMIK1R KUMIK Y854 BOMBI T721 LAMGO/N0434F270 T721 RILAX |
| Aircraft | A320/M-SDE3FGHIRWY/LB1 |
Departure
| Time | 2026-04-26 18:34 |
|---|---|
| Airport | Cologne Bonn Airport (EDDK) |
Arrival
| Time | 2026-04-26 19:29 |
|---|---|
| Airport | Zürich Airport (LSZH) |
| Time | Latitude | Longitude | Altitude | Speed | Heading |
|---|---|---|---|---|---|
| 2026-04-26 17:53 | 50.88105 | 7.12093 | 230 ft | 0 kts | 216° |
| 2026-04-26 18:17 | 50.88118 | 7.12108 | 230 ft | 4 kts | 210° |
| 2026-04-26 18:17 | 50.88142 | 7.12124 | 232 ft | 4 kts | 189° |
| 2026-04-26 18:17 | 50.88167 | 7.12122 | 231 ft | 4 kts | 144° |
| 2026-04-26 18:18 | 50.88174 | 7.12111 | 233 ft | 0 kts | 126° |
| 2026-04-26 18:23 | 50.88161 | 7.12140 | 231 ft | 8 kts | 128° |
| 2026-04-26 18:23 | 50.88120 | 7.12223 | 230 ft | 9 kts | 125° |
| 2026-04-26 18:23 | 50.88097 | 7.12311 | 230 ft | 8 kts | 106° |
| 2026-04-26 18:24 | 50.88072 | 7.12379 | 230 ft | 6 kts | 147° |
| 2026-04-26 18:24 | 50.88048 | 7.12419 | 230 ft | 5 kts | 118° |
| 2026-04-26 18:24 | 50.88028 | 7.12483 | 231 ft | 10 kts | 116° |
| 2026-04-26 18:24 | 50.87997 | 7.12572 | 230 ft | 9 kts | 122° |
| 2026-04-26 18:25 | 50.87981 | 7.12651 | 231 ft | 6 kts | 93° |
| 2026-04-26 18:25 | 50.87980 | 7.12692 | 232 ft | 1 kts | 131° |
| 2026-04-26 18:25 | 50.87971 | 7.12680 | 235 ft | 6 kts | 223° |
| 2026-04-26 18:25 | 50.87928 | 7.12625 | 230 ft | 8 kts | 202° |
| 2026-04-26 18:26 | 50.87882 | 7.12629 | 232 ft | 6 kts | 179° |
| 2026-04-26 18:26 | 50.87837 | 7.12629 | 230 ft | 10 kts | 178° |
| 2026-04-26 18:26 | 50.87765 | 7.12704 | 230 ft | 13 kts | 137° |
| 2026-04-26 18:26 | 50.87699 | 7.12790 | 230 ft | 11 kts | 140° |
| 2026-04-26 18:27 | 50.87643 | 7.12867 | 230 ft | 10 kts | 136° |
| 2026-04-26 18:27 | 50.87583 | 7.12964 | 230 ft | 14 kts | 136° |
| 2026-04-26 18:27 | 50.87516 | 7.13052 | 232 ft | 11 kts | 138° |
| 2026-04-26 18:27 | 50.87470 | 7.13126 | 232 ft | 9 kts | 134° |
| 2026-04-26 18:28 | 50.87420 | 7.13203 | 232 ft | 17 kts | 136° |
| 2026-04-26 18:28 | 50.87308 | 7.13366 | 235 ft | 23 kts | 138° |
| 2026-04-26 18:28 | 50.87193 | 7.13531 | 238 ft | 22 kts | 137° |
| 2026-04-26 18:28 | 50.87080 | 7.13695 | 241 ft | 22 kts | 139° |
| 2026-04-26 18:29 | 50.86969 | 7.13856 | 243 ft | 22 kts | 137° |
| 2026-04-26 18:29 | 50.86857 | 7.14017 | 245 ft | 21 kts | 137° |
| 2026-04-26 18:29 | 50.86748 | 7.14138 | 252 ft | 17 kts | 159° |
| 2026-04-26 18:29 | 50.86689 | 7.14203 | 255 ft | 0 kts | 138° |
| 2026-04-26 18:30 | 50.86688 | 7.14204 | 255 ft | 2 kts | 138° |
| 2026-04-26 18:30 | 50.86610 | 7.14318 | 257 ft | 26 kts | 137° |
| 2026-04-26 18:30 | 50.86469 | 7.14512 | 260 ft | 27 kts | 137° |
| 2026-04-26 18:31 | 50.86339 | 7.14706 | 265 ft | 26 kts | 136° |
| 2026-04-26 18:31 | 50.86211 | 7.14892 | 270 ft | 25 kts | 138° |
| 2026-04-26 18:31 | 50.86086 | 7.15076 | 275 ft | 24 kts | 137° |
| 2026-04-26 18:31 | 50.85964 | 7.15251 | 280 ft | 23 kts | 138° |
| 2026-04-26 18:32 | 50.85844 | 7.15422 | 286 ft | 26 kts | 138° |
| 2026-04-26 18:32 | 50.85716 | 7.15610 | 297 ft | 24 kts | 137° |
| 2026-04-26 18:32 | 50.85592 | 7.15790 | 298 ft | 24 kts | 137° |
| 2026-04-26 18:32 | 50.85467 | 7.15971 | 302 ft | 24 kts | 137° |
| 2026-04-26 18:33 | 50.85353 | 7.16160 | 305 ft | 24 kts | 118° |
| 2026-04-26 18:33 | 50.85358 | 7.16393 | 310 ft | 21 kts | 62° |
| 2026-04-26 18:33 | 50.85470 | 7.16514 | 314 ft | 19 kts | 14° |
| 2026-04-26 18:33 | 50.85604 | 7.16449 | 310 ft | 25 kts | 317° |
| 2026-04-26 18:34 | 50.85827 | 7.16130 | 308 ft | 76 kts | 314° |
| 2026-04-26 18:34 | 50.86385 | 7.15320 | 269 ft | 137 kts | 317° |
| 2026-04-26 18:34 | 50.87198 | 7.14190 | 466 ft | 165 kts | 320° |
| 2026-04-26 18:34 | 50.88058 | 7.12945 | 1070 ft | 169 kts | 319° |
| 2026-04-26 18:35 | 50.88941 | 7.11723 | 1810 ft | 169 kts | 330° |
| 2026-04-26 18:35 | 50.89668 | 7.11281 | 2207 ft | 174 kts | 355° |
| 2026-04-26 18:35 | 50.90893 | 7.11688 | 2539 ft | 193 kts | 27° |
| 2026-04-26 18:35 | 50.92162 | 7.12684 | 2923 ft | 212 kts | 27° |
| 2026-04-26 18:36 | 50.93403 | 7.13989 | 3643 ft | 218 kts | 48° |
| 2026-04-26 18:36 | 50.94249 | 7.16119 | 4118 ft | 241 kts | 63° |
| 2026-04-26 18:36 | 50.95034 | 7.18618 | 4656 ft | 262 kts | 62° |
| 2026-04-26 18:36 | 50.95859 | 7.21285 | 5485 ft | 269 kts | 62° |
| 2026-04-26 18:37 | 50.96692 | 7.23973 | 6403 ft | 274 kts | 62° |
| 2026-04-26 18:37 | 50.97543 | 7.26698 | 7273 ft | 278 kts | 60° |
| 2026-04-26 18:37 | 50.98413 | 7.29455 | 8148 ft | 281 kts | 60° |
| 2026-04-26 18:37 | 50.99298 | 7.32250 | 9005 ft | 285 kts | 60° |
| 2026-04-26 18:38 | 51.00197 | 7.35087 | 9882 ft | 290 kts | 60° |
| 2026-04-26 18:38 | 51.01078 | 7.37992 | 10694 ft | 296 kts | 65° |
| 2026-04-26 18:38 | 51.01609 | 7.41235 | 11200 ft | 317 kts | 81° |
| 2026-04-26 18:38 | 51.01549 | 7.44875 | 11436 ft | 345 kts | 98° |
| 2026-04-26 18:39 | 51.00698 | 7.48559 | 11730 ft | 367 kts | 121° |
| 2026-04-26 18:39 | 50.98996 | 7.51621 | 12345 ft | 375 kts | 141° |
| 2026-04-26 18:39 | 50.96915 | 7.54164 | 13093 ft | 379 kts | 143° |
| 2026-04-26 18:39 | 50.94791 | 7.56678 | 13885 ft | 383 kts | 143° |
| 2026-04-26 18:40 | 50.92648 | 7.59219 | 14596 ft | 386 kts | 143° |
| 2026-04-26 18:40 | 50.90643 | 7.62057 | 15247 ft | 390 kts | 133° |
| 2026-04-26 18:40 | 50.88810 | 7.65254 | 15903 ft | 393 kts | 132° |
| 2026-04-26 18:40 | 50.86972 | 7.68474 | 16560 ft | 397 kts | 132° |
| 2026-04-26 18:41 | 50.85115 | 7.71733 | 17201 ft | 400 kts | 132° |
| 2026-04-26 18:41 | 50.83239 | 7.75023 | 17830 ft | 404 kts | 132° |
| 2026-04-26 18:41 | 50.81350 | 7.78330 | 18449 ft | 408 kts | 133° |
| 2026-04-26 18:41 | 50.79436 | 7.81672 | 18977 ft | 411 kts | 133° |
| 2026-04-26 18:42 | 50.77508 | 7.85033 | 19486 ft | 415 kts | 133° |
| 2026-04-26 18:42 | 50.75557 | 7.88430 | 19998 ft | 419 kts | 133° |
| 2026-04-26 18:42 | 50.73526 | 7.91751 | 20490 ft | 422 kts | 140° |
| 2026-04-26 18:42 | 50.71056 | 7.94237 | 20961 ft | 424 kts | 158° |
| 2026-04-26 18:43 | 50.68232 | 7.95535 | 21458 ft | 424 kts | 173° |
| 2026-04-26 18:43 | 50.65255 | 7.96223 | 21937 ft | 428 kts | 174° |
| 2026-04-26 18:43 | 50.62303 | 7.96862 | 22438 ft | 431 kts | 174° |
| 2026-04-26 18:43 | 50.59316 | 7.97486 | 22908 ft | 434 kts | 174° |
| 2026-04-26 18:44 | 50.56311 | 7.98107 | 23388 ft | 438 kts | 174° |
| 2026-04-26 18:44 | 50.53271 | 7.98744 | 23848 ft | 442 kts | 174° |
| 2026-04-26 18:44 | 50.50216 | 7.99389 | 24241 ft | 445 kts | 174° |
| 2026-04-26 18:44 | 50.47139 | 8.00043 | 24635 ft | 448 kts | 174° |
| 2026-04-26 18:45 | 50.44038 | 8.00704 | 25029 ft | 451 kts | 174° |
| 2026-04-26 18:45 | 50.40923 | 8.01368 | 25394 ft | 454 kts | 174° |
| 2026-04-26 18:45 | 50.37781 | 8.02040 | 25779 ft | 457 kts | 174° |
| 2026-04-26 18:45 | 50.34620 | 8.02718 | 26130 ft | 460 kts | 174° |
| 2026-04-26 18:46 | 50.31433 | 8.03399 | 26494 ft | 463 kts | 174° |
| 2026-04-26 18:46 | 50.28230 | 8.04081 | 26856 ft | 466 kts | 174° |
| 2026-04-26 18:46 | 50.25002 | 8.04765 | 27219 ft | 469 kts | 174° |
| 2026-04-26 18:46 | 50.21762 | 8.05455 | 27572 ft | 472 kts | 174° |
| 2026-04-26 18:47 | 50.18500 | 8.06150 | 27916 ft | 475 kts | 174° |
| 2026-04-26 18:47 | 50.15172 | 8.06875 | 28243 ft | 477 kts | 174° |
| 2026-04-26 18:47 | 50.11875 | 8.07597 | 28551 ft | 481 kts | 174° |
| 2026-04-26 18:47 | 50.08552 | 8.08311 | 28850 ft | 484 kts | 174° |
| 2026-04-26 18:48 | 50.05211 | 8.09016 | 29159 ft | 486 kts | 174° |
| 2026-04-26 18:48 | 50.01865 | 8.09714 | 29466 ft | 489 kts | 174° |
| 2026-04-26 18:48 | 49.98472 | 8.10416 | 29848 ft | 489 kts | 174° |
| 2026-04-26 18:48 | 49.95098 | 8.11113 | 30315 ft | 489 kts | 174° |
| 2026-04-26 18:49 | 49.91731 | 8.11813 | 30703 ft | 488 kts | 174° |
| 2026-04-26 18:49 | 49.88366 | 8.12517 | 31047 ft | 487 kts | 174° |
| 2026-04-26 18:49 | 49.85009 | 8.13218 | 31218 ft | 487 kts | 174° |
| 2026-04-26 18:49 | 49.81661 | 8.13913 | 31254 ft | 485 kts | 174° |
| 2026-04-26 18:50 | 49.74984 | 8.15297 | 31257 ft | 483 kts | 174° |
| 2026-04-26 18:50 | 49.68323 | 8.16681 | 31240 ft | 482 kts | 174° |
| 2026-04-26 18:51 | 49.61638 | 8.18060 | 31241 ft | 482 kts | 174° |
| 2026-04-26 18:51 | 49.55034 | 8.19424 | 31242 ft | 481 kts | 174° |
| 2026-04-26 18:52 | 49.48362 | 8.20790 | 31227 ft | 481 kts | 174° |
| 2026-04-26 18:52 | 49.41728 | 8.22129 | 31217 ft | 481 kts | 174° |
| 2026-04-26 18:53 | 49.35096 | 8.23486 | 31215 ft | 481 kts | 174° |
| 2026-04-26 18:53 | 49.28467 | 8.24850 | 31210 ft | 481 kts | 174° |
| 2026-04-26 18:54 | 49.21836 | 8.26195 | 31193 ft | 481 kts | 174° |
| 2026-04-26 18:54 | 49.15201 | 8.27529 | 31199 ft | 481 kts | 174° |
| 2026-04-26 18:55 | 49.08573 | 8.28860 | 31203 ft | 480 kts | 174° |
| 2026-04-26 18:55 | 49.01943 | 8.30194 | 31207 ft | 481 kts | 174° |
| 2026-04-26 18:56 | 48.98630 | 8.30866 | 31082 ft | 479 kts | 174° |
| 2026-04-26 18:56 | 48.95332 | 8.31531 | 30263 ft | 480 kts | 174° |
| 2026-04-26 18:56 | 48.92005 | 8.32193 | 29196 ft | 483 kts | 174° |
| 2026-04-26 18:56 | 48.88667 | 8.32854 | 28156 ft | 485 kts | 174° |
| 2026-04-26 18:57 | 48.85331 | 8.33519 | 27344 ft | 483 kts | 174° |
| 2026-04-26 18:57 | 48.83086 | 8.33968 | 26866 ft | 479 kts | 174° |
| 2026-04-26 18:57 | 48.78738 | 8.34842 | 25985 ft | 473 kts | 174° |
| 2026-04-26 18:57 | 48.75489 | 8.35495 | 25428 ft | 471 kts | 174° |
| 2026-04-26 18:58 | 48.72237 | 8.36145 | 25208 ft | 471 kts | 174° |
| 2026-04-26 18:58 | 48.68991 | 8.36786 | 25213 ft | 471 kts | 174° |
| 2026-04-26 18:58 | 48.65734 | 8.37423 | 25219 ft | 472 kts | 174° |
| 2026-04-26 18:58 | 48.62484 | 8.38058 | 25213 ft | 471 kts | 174° |
| 2026-04-26 18:59 | 48.59259 | 8.38694 | 24710 ft | 466 kts | 174° |
| 2026-04-26 18:59 | 48.56010 | 8.39335 | 24060 ft | 462 kts | 174° |
| 2026-04-26 18:59 | 48.52836 | 8.39959 | 23392 ft | 458 kts | 174° |
| 2026-04-26 18:59 | 48.49692 | 8.40579 | 22747 ft | 453 kts | 174° |
| 2026-04-26 19:00 | 48.46585 | 8.41192 | 22138 ft | 448 kts | 174° |
| 2026-04-26 19:00 | 48.43508 | 8.41797 | 21550 ft | 443 kts | 174° |
| 2026-04-26 19:00 | 48.40471 | 8.42392 | 20978 ft | 438 kts | 174° |
| 2026-04-26 19:00 | 48.37460 | 8.42979 | 20420 ft | 433 kts | 174° |
| 2026-04-26 19:01 | 48.34486 | 8.43560 | 19877 ft | 429 kts | 174° |
| 2026-04-26 19:01 | 48.31548 | 8.44135 | 19336 ft | 424 kts | 174° |
| 2026-04-26 19:01 | 48.28637 | 8.44706 | 18822 ft | 420 kts | 174° |
| 2026-04-26 19:01 | 48.25751 | 8.45272 | 18354 ft | 416 kts | 174° |
| 2026-04-26 19:02 | 48.22880 | 8.45835 | 18184 ft | 415 kts | 174° |
| 2026-04-26 19:02 | 48.20015 | 8.46392 | 18222 ft | 416 kts | 174° |
| 2026-04-26 19:02 | 48.17151 | 8.46945 | 18218 ft | 416 kts | 174° |
| 2026-04-26 19:02 | 48.15250 | 8.47311 | 18220 ft | 416 kts | 174° |
| 2026-04-26 19:03 | 48.11413 | 8.48048 | 18216 ft | 416 kts | 174° |
| 2026-04-26 19:03 | 48.08537 | 8.48601 | 18223 ft | 417 kts | 174° |
| 2026-04-26 19:03 | 48.05661 | 8.49155 | 18223 ft | 417 kts | 174° |
| 2026-04-26 19:03 | 48.02787 | 8.49710 | 18223 ft | 417 kts | 174° |
| 2026-04-26 19:04 | 47.99913 | 8.50267 | 18227 ft | 416 kts | 174° |
| 2026-04-26 19:04 | 47.97066 | 8.51071 | 18216 ft | 417 kts | 166° |
| 2026-04-26 19:04 | 47.94337 | 8.52530 | 18220 ft | 418 kts | 156° |
| 2026-04-26 19:04 | 47.91784 | 8.54616 | 18220 ft | 419 kts | 147° |
| 2026-04-26 19:05 | 47.87216 | 8.59991 | 18220 ft | 419 kts | 141° |
| 2026-04-26 19:05 | 47.84956 | 8.62743 | 18221 ft | 419 kts | 141° |
| 2026-04-26 19:05 | 47.82698 | 8.65485 | 18214 ft | 419 kts | 141° |
| 2026-04-26 19:06 | 47.81170 | 8.67337 | 18215 ft | 419 kts | 141° |
| 2026-04-26 19:06 | 47.78909 | 8.70075 | 18174 ft | 417 kts | 141° |
| 2026-04-26 19:06 | 47.76694 | 8.72750 | 17199 ft | 409 kts | 141° |
| 2026-04-26 19:06 | 47.74482 | 8.75421 | 16601 ft | 407 kts | 141° |
| 2026-04-26 19:07 | 47.72302 | 8.78051 | 16094 ft | 403 kts | 141° |
| 2026-04-26 19:07 | 47.70135 | 8.80664 | 15584 ft | 399 kts | 142° |
| 2026-04-26 19:07 | 47.67991 | 8.83247 | 15096 ft | 395 kts | 142° |
| 2026-04-26 19:07 | 47.65842 | 8.85834 | 14648 ft | 390 kts | 142° |
| 2026-04-26 19:08 | 47.63775 | 8.88343 | 14519 ft | 376 kts | 140° |
| 2026-04-26 19:08 | 47.62015 | 8.91126 | 14397 ft | 365 kts | 128° |
| 2026-04-26 19:08 | 47.60698 | 8.94253 | 14283 ft | 353 kts | 117° |
| 2026-04-26 19:08 | 47.59591 | 8.97443 | 14154 ft | 342 kts | 118° |
| 2026-04-26 19:09 | 47.58331 | 9.00419 | 13431 ft | 347 kts | 133° |
| 2026-04-26 19:09 | 47.56403 | 9.02620 | 12485 ft | 356 kts | 155° |
| 2026-04-26 19:09 | 47.54018 | 9.03635 | 11623 ft | 360 kts | 176° |
| 2026-04-26 19:09 | 47.51518 | 9.03884 | 10960 ft | 360 kts | 179° |
| 2026-04-26 19:10 | 47.49028 | 9.04061 | 10576 ft | 353 kts | 179° |
| 2026-04-26 19:10 | 47.46640 | 9.03943 | 10448 ft | 335 kts | 193° |
| 2026-04-26 19:10 | 47.44557 | 9.02648 | 10319 ft | 318 kts | 217° |
| 2026-04-26 19:10 | 47.43092 | 9.00348 | 10199 ft | 302 kts | 241° |
| 2026-04-26 19:11 | 47.42463 | 8.97485 | 10083 ft | 289 kts | 266° |
| 2026-04-26 19:11 | 47.42483 | 8.94572 | 9867 ft | 281 kts | 268° |
| 2026-04-26 19:11 | 47.42001 | 8.91828 | 9516 ft | 278 kts | 243° |
| 2026-04-26 19:11 | 47.40846 | 8.89550 | 9095 ft | 279 kts | 227° |
| 2026-04-26 19:12 | 47.39473 | 8.87526 | 8684 ft | 278 kts | 225° |
| 2026-04-26 19:12 | 47.38081 | 8.85542 | 8296 ft | 278 kts | 224° |
| 2026-04-26 19:12 | 47.36696 | 8.83566 | 7894 ft | 277 kts | 225° |
| 2026-04-26 19:12 | 47.35271 | 8.81656 | 7502 ft | 276 kts | 216° |
| 2026-04-26 19:13 | 47.33580 | 8.80337 | 7110 ft | 276 kts | 199° |
| 2026-04-26 19:13 | 47.31707 | 8.79808 | 6715 ft | 275 kts | 181° |
| 2026-04-26 19:13 | 47.29809 | 8.80111 | 6306 ft | 274 kts | 163° |
| 2026-04-26 19:13 | 47.28073 | 8.81205 | 5911 ft | 271 kts | 146° |
| 2026-04-26 19:14 | 47.26620 | 8.82930 | 5524 ft | 267 kts | 136° |
| 2026-04-26 19:14 | 47.25258 | 8.84790 | 5143 ft | 266 kts | 136° |
| 2026-04-26 19:14 | 47.23905 | 8.86631 | 4735 ft | 265 kts | 135° |
| 2026-04-26 19:14 | 47.23127 | 8.88040 | 4456 ft | 263 kts | 118° |
| 2026-04-26 19:15 | 47.22715 | 8.91432 | 4020 ft | 258 kts | 78° |
| 2026-04-26 19:15 | 47.23481 | 8.93799 | 4016 ft | 260 kts | 50° |
| 2026-04-26 19:15 | 47.24793 | 8.95662 | 4231 ft | 265 kts | 37° |
| 2026-04-26 19:15 | 47.26474 | 8.96851 | 5251 ft | 268 kts | 18° |
| 2026-04-26 19:16 | 47.28281 | 8.97630 | 5814 ft | 272 kts | 16° |
| 2026-04-26 19:16 | 47.30083 | 8.98359 | 5974 ft | 272 kts | 16° |
| 2026-04-26 19:16 | 47.31943 | 8.99020 | 6012 ft | 272 kts | 6° |
| 2026-04-26 19:16 | 47.33805 | 8.98659 | 6019 ft | 273 kts | 338° |
| 2026-04-26 19:17 | 47.35476 | 8.97314 | 6016 ft | 274 kts | 328° |
| 2026-04-26 19:17 | 47.37091 | 8.95809 | 6019 ft | 274 kts | 328° |
| 2026-04-26 19:17 | 47.38689 | 8.94287 | 6017 ft | 275 kts | 328° |
| 2026-04-26 19:17 | 47.40306 | 8.92739 | 6016 ft | 276 kts | 327° |
| 2026-04-26 19:18 | 47.41831 | 8.91035 | 6015 ft | 275 kts | 321° |
| 2026-04-26 19:18 | 47.43286 | 8.89209 | 6015 ft | 275 kts | 320° |
| 2026-04-26 19:18 | 47.44734 | 8.87367 | 6014 ft | 275 kts | 320° |
| 2026-04-26 19:18 | 47.46184 | 8.85521 | 6017 ft | 275 kts | 321° |
| 2026-04-26 19:19 | 47.47213 | 8.84191 | 6014 ft | 275 kts | 320° |
| 2026-04-26 19:19 | 47.47654 | 8.83618 | 6014 ft | 275 kts | 320° |
| 2026-04-26 19:19 | 47.49096 | 8.81742 | 6014 ft | 276 kts | 320° |
| 2026-04-26 19:19 | 47.50527 | 8.79863 | 6015 ft | 276 kts | 320° |
| 2026-04-26 19:20 | 47.51962 | 8.77973 | 6015 ft | 275 kts | 320° |
| 2026-04-26 19:20 | 47.52904 | 8.76723 | 6016 ft | 275 kts | 320° |
| 2026-04-26 19:20 | 47.54800 | 8.74192 | 6016 ft | 275 kts | 320° |
| 2026-04-26 19:20 | 47.56221 | 8.72294 | 6016 ft | 275 kts | 320° |
| 2026-04-26 19:21 | 47.57577 | 8.70295 | 6016 ft | 276 kts | 314° |
| 2026-04-26 19:21 | 47.58866 | 8.68197 | 6016 ft | 276 kts | 314° |
| 2026-04-26 19:21 | 47.60153 | 8.66082 | 6015 ft | 275 kts | 314° |
| 2026-04-26 19:21 | 47.61432 | 8.63972 | 6017 ft | 275 kts | 314° |
| 2026-04-26 19:22 | 47.62710 | 8.61861 | 6020 ft | 276 kts | 314° |
| 2026-04-26 19:22 | 47.63993 | 8.59744 | 6019 ft | 276 kts | 314° |
| 2026-04-26 19:22 | 47.65272 | 8.57633 | 6021 ft | 276 kts | 314° |
| 2026-04-26 19:22 | 47.66553 | 8.55518 | 6022 ft | 276 kts | 314° |
| 2026-04-26 19:23 | 47.67835 | 8.53399 | 6023 ft | 276 kts | 314° |
| 2026-04-26 19:23 | 47.69118 | 8.51276 | 6025 ft | 276 kts | 314° |
| 2026-04-26 19:23 | 47.70396 | 8.49160 | 6021 ft | 276 kts | 313° |
| 2026-04-26 19:23 | 47.71678 | 8.46996 | 5676 ft | 276 kts | 306° |
| 2026-04-26 19:24 | 47.72379 | 8.44386 | 5517 ft | 276 kts | 276° |
| 2026-04-26 19:24 | 47.72164 | 8.41568 | 5537 ft | 278 kts | 250° |
| 2026-04-26 19:24 | 47.69855 | 8.37113 | 5539 ft | 276 kts | 219° |
| 2026-04-26 19:25 | 47.68393 | 8.35245 | 5537 ft | 278 kts | 216° |
| 2026-04-26 19:25 | 47.67311 | 8.34239 | 5536 ft | 276 kts | 202° |
| 2026-04-26 19:25 | 47.64839 | 8.33472 | 5532 ft | 271 kts | 175° |
| 2026-04-26 19:25 | 47.63014 | 8.34029 | 5528 ft | 268 kts | 155° |
| 2026-04-26 19:26 | 47.61431 | 8.35440 | 5053 ft | 269 kts | 137° |
| 2026-04-26 19:26 | 47.60057 | 8.37322 | 4607 ft | 267 kts | 134° |
| 2026-04-26 19:26 | 47.58720 | 8.39197 | 4244 ft | 263 kts | 134° |
| 2026-04-26 19:26 | 47.57392 | 8.41026 | 3881 ft | 259 kts | 134° |
| 2026-04-26 19:27 | 47.56081 | 8.42823 | 3552 ft | 254 kts | 134° |
| 2026-04-26 19:27 | 47.54794 | 8.44588 | 3196 ft | 250 kts | 134° |
| 2026-04-26 19:27 | 47.53527 | 8.46325 | 2860 ft | 246 kts | 134° |
| 2026-04-26 19:27 | 47.52309 | 8.47992 | 2530 ft | 230 kts | 134° |
| 2026-04-26 19:28 | 47.51169 | 8.49552 | 2225 ft | 216 kts | 135° |
| 2026-04-26 19:28 | 47.50101 | 8.51014 | 1967 ft | 202 kts | 135° |
| 2026-04-26 19:28 | 47.49106 | 8.52375 | 1701 ft | 188 kts | 135° |
| 2026-04-26 19:28 | 47.48185 | 8.53634 | 1457 ft | 173 kts | 136° |
| 2026-04-26 19:29 | 47.47359 | 8.54764 | 1417 ft | 148 kts | 137° |
| 2026-04-26 19:29 | 47.46725 | 8.55641 | 1399 ft | 72 kts | 139° |
| 2026-04-26 19:29 | 47.46519 | 8.55906 | 1397 ft | 33 kts | 148° |
| 2026-04-26 19:29 | 47.46368 | 8.55959 | 1397 ft | 0 kts | 164° |
| 2026-04-26 19:30 | 47.46357 | 8.55963 | 1404 ft | 8 kts | 165° |
| 2026-04-26 19:30 | 47.46301 | 8.55981 | 1402 ft | 18 kts | 169° |
| 2026-04-26 19:31 | 47.46104 | 8.55992 | 1401 ft | 20 kts | 185° |
| 2026-04-26 19:31 | 47.45992 | 8.55972 | 1402 ft | 14 kts | 199° |
| 2026-04-26 19:31 | 47.45908 | 8.55932 | 1403 ft | 12 kts | 191° |
| 2026-04-26 19:31 | 47.45821 | 8.55894 | 1407 ft | 14 kts | 199° |
| 2026-04-26 19:32 | 47.45731 | 8.55868 | 1401 ft | 12 kts | 186° |
| 2026-04-26 19:32 | 47.45628 | 8.55853 | 1397 ft | 18 kts | 186° |
| 2026-04-26 19:32 | 47.45529 | 8.55836 | 1397 ft | 8 kts | 194° |
| 2026-04-26 19:32 | 47.45479 | 8.55811 | 1399 ft | 7 kts | 185° |
| 2026-04-26 19:33 | 47.45453 | 8.55807 | 1397 ft | 0 kts | 186° |
| 2026-04-26 19:33 | 47.45432 | 8.55804 | 1401 ft | 3 kts | 186° |
| 2026-04-26 19:33 | 47.45427 | 8.55803 | 1397 ft | 0 kts | 186° |